sensor_id;sensor_type;location;lat;lon;timestamp;pressure;altitude;pressure_sealevel;temperature;humidity
55517;BME280;41724;51.176;-0.708;2023-09-30T00:00:48;102086.63;;;15.44;64.77
55517;BME280;41724;51.176;-0.708;2023-09-30T00:03:15;102086.10;;;15.83;63.96
55517;BME280;41724;51.176;-0.708;2023-09-30T00:05:42;102089.32;;;16.03;63.81
55517;BME280;41724;51.176;-0.708;2023-09-30T00:08:09;102099.77;;;15.71;63.37
55517;BME280;41724;51.176;-0.708;2023-09-30T00:10:36;102108.18;;;15.80;64.59
55517;BME280;41724;51.176;-0.708;2023-09-30T00:13:03;102106.94;;;15.47;65.45
55517;BME280;41724;51.176;-0.708;2023-09-30T00:15:31;102102.28;;;15.15;65.19
55517;BME280;41724;51.176;-0.708;2023-09-30T00:17:58;102100.23;;;15.48;64.32
55517;BME280;41724;51.176;-0.708;2023-09-30T00:20:25;102106.44;;;15.62;64.10
55517;BME280;41724;51.176;-0.708;2023-09-30T00:22:52;102111.40;;;15.61;64.24
55517;BME280;41724;51.176;-0.708;2023-09-30T00:25:20;102104.35;;;15.15;65.61
55517;BME280;41724;51.176;-0.708;2023-09-30T00:27:47;102088.41;;;15.40;65.04
55517;BME280;41724;51.176;-0.708;2023-09-30T00:30:14;102086.50;;;15.55;64.68
55517;BME280;41724;51.176;-0.708;2023-09-30T00:32:42;102093.37;;;15.54;64.42
55517;BME280;41724;51.176;-0.708;2023-09-30T00:35:09;102100.12;;;15.70;63.69
55517;BME280;41724;51.176;-0.708;2023-09-30T00:37:37;102098.31;;;15.84;64.16
55517;BME280;41724;51.176;-0.708;2023-09-30T00:40:05;102095.66;;;15.88;64.64
55517;BME280;41724;51.176;-0.708;2023-09-30T00:42:33;102102.64;;;15.43;66.00
55517;BME280;41724;51.176;-0.708;2023-09-30T00:45:00;102104.11;;;15.28;64.78
55517;BME280;41724;51.176;-0.708;2023-09-30T00:47:27;102104.62;;;15.63;64.63
55517;BME280;41724;51.176;-0.708;2023-09-30T00:49:54;102098.64;;;15.96;64.27
55517;BME280;41724;51.176;-0.708;2023-09-30T00:52:21;102104.77;;;15.54;64.20
55517;BME280;41724;51.176;-0.708;2023-09-30T00:54:49;102109.64;;;15.86;64.77
55517;BME280;41724;51.176;-0.708;2023-09-30T00:57:18;102105.87;;;15.67;64.75
55517;BME280;41724;51.176;-0.708;2023-09-30T00:59:47;102111.10;;;15.30;65.00
55517;BME280;41724;51.176;-0.708;2023-09-30T01:02:14;102115.84;;;15.35;64.60
55517;BME280;41724;51.176;-0.708;2023-09-30T01:04:42;102112.12;;;15.44;63.98
55517;BME280;41724;51.176;-0.708;2023-09-30T01:07:09;102109.36;;;15.60;64.06
55517;BME280;41724;51.176;-0.708;2023-09-30T01:09:37;102107.89;;;15.87;63.88
55517;BME280;41724;51.176;-0.708;2023-09-30T01:12:04;102116.16;;;15.87;63.82
55517;BME280;41724;51.176;-0.708;2023-09-30T01:14:33;102119.77;;;15.83;63.74
55517;BME280;41724;51.176;-0.708;2023-09-30T01:17:00;102113.40;;;15.83;63.78
55517;BME280;41724;51.176;-0.708;2023-09-30T01:19:28;102109.20;;;15.39;64.53
55517;BME280;41724;51.176;-0.708;2023-09-30T01:21:55;102102.38;;;15.08;65.74
55517;BME280;41724;51.176;-0.708;2023-09-30T01:24:22;102099.98;;;15.16;65.49
55517;BME280;41724;51.176;-0.708;2023-09-30T01:26:49;102105.87;;;15.47;64.53
55517;BME280;41724;51.176;-0.708;2023-09-30T01:29:16;102101.84;;;15.46;65.10
55517;BME280;41724;51.176;-0.708;2023-09-30T01:31:43;102100.29;;;15.49;64.63
55517;BME280;41724;51.176;-0.708;2023-09-30T01:34:10;102103.12;;;15.19;65.20
55517;BME280;41724;51.176;-0.708;2023-09-30T01:36:37;102107.48;;;15.16;65.03
55517;BME280;41724;51.176;-0.708;2023-09-30T01:39:04;102106.63;;;14.95;64.94
55517;BME280;41724;51.176;-0.708;2023-09-30T01:41:31;102103.83;;;15.12;65.39
55517;BME280;41724;51.176;-0.708;2023-09-30T01:43:58;102088.08;;;15.32;65.04
55517;BME280;41724;51.176;-0.708;2023-09-30T01:46:25;102106.65;;;15.39;64.72
55517;BME280;41724;51.176;-0.708;2023-09-30T01:48:53;102107.10;;;15.65;65.09
55517;BME280;41724;51.176;-0.708;2023-09-30T01:51:20;102094.77;;;15.73;64.80
55517;BME280;41724;51.176;-0.708;2023-09-30T01:53:47;102088.97;;;15.83;64.47
55517;BME280;41724;51.176;-0.708;2023-09-30T01:56:14;102083.36;;;15.15;66.02
55517;BME280;41724;51.176;-0.708;2023-09-30T01:58:41;102086.27;;;15.67;65.10
55517;BME280;41724;51.176;-0.708;2023-09-30T02:01:08;102088.01;;;15.66;64.46
55517;BME280;41724;51.176;-0.708;2023-09-30T02:03:35;102088.62;;;15.49;65.35
55517;BME280;41724;51.176;-0.708;2023-09-30T02:06:02;102094.13;;;15.24;66.50
55517;BME280;41724;51.176;-0.708;2023-09-30T02:08:29;102090.52;;;15.59;65.58
55517;BME280;41724;51.176;-0.708;2023-09-30T02:10:56;102090.36;;;15.51;65.08
55517;BME280;41724;51.176;-0.708;2023-09-30T02:13:23;102081.77;;;15.69;65.12
55517;BME280;41724;51.176;-0.708;2023-09-30T02:15:50;102067.79;;;15.43;65.73
55517;BME280;41724;51.176;-0.708;2023-09-30T02:18:17;102059.85;;;15.57;65.39
55517;BME280;41724;51.176;-0.708;2023-09-30T02:20:44;102053.86;;;15.38;65.33
55517;BME280;41724;51.176;-0.708;2023-09-30T02:23:12;102069.08;;;15.74;65.01
55517;BME280;41724;51.176;-0.708;2023-09-30T02:25:39;102080.45;;;15.38;65.49
55517;BME280;41724;51.176;-0.708;2023-09-30T02:28:06;102077.34;;;15.24;65.35
55517;BME280;41724;51.176;-0.708;2023-09-30T02:30:33;102075.39;;;15.25;65.45
55517;BME280;41724;51.176;-0.708;2023-09-30T02:33:00;102069.05;;;15.32;66.05
55517;BME280;41724;51.176;-0.708;2023-09-30T02:35:27;102068.41;;;14.87;66.80
55517;BME280;41724;51.176;-0.708;2023-09-30T02:37:55;102066.08;;;14.88;66.85
55517;BME280;41724;51.176;-0.708;2023-09-30T02:40:22;102069.63;;;15.26;65.74
55517;BME280;41724;51.176;-0.708;2023-09-30T02:42:49;102065.84;;;15.08;66.13
55517;BME280;41724;51.176;-0.708;2023-09-30T02:45:16;102060.02;;;14.48;66.95
55517;BME280;41724;51.176;-0.708;2023-09-30T02:47:43;102059.61;;;14.74;66.97
55517;BME280;41724;51.176;-0.708;2023-09-30T02:50:11;102065.65;;;14.84;66.17
55517;BME280;41724;51.176;-0.708;2023-09-30T02:52:38;102060.50;;;14.95;66.27
55517;BME280;41724;51.176;-0.708;2023-09-30T02:55:06;102053.14;;;14.55;66.25
55517;BME280;41724;51.176;-0.708;2023-09-30T02:57:34;102059.84;;;14.67;65.54
55517;BME280;41724;51.176;-0.708;2023-09-30T03:00:02;102060.81;;;14.61;64.80
55517;BME280;41724;51.176;-0.708;2023-09-30T03:02:29;102061.39;;;14.63;65.38
55517;BME280;41724;51.176;-0.708;2023-09-30T03:04:56;102057.03;;;14.28;66.29
55517;BME280;41724;51.176;-0.708;2023-09-30T03:07:23;102063.34;;;14.44;65.45
55517;BME280;41724;51.176;-0.708;2023-09-30T03:09:50;102061.06;;;14.60;65.64
55517;BME280;41724;51.176;-0.708;2023-09-30T03:12:17;102062.87;;;14.55;65.41
55517;BME280;41724;51.176;-0.708;2023-09-30T03:14:45;102068.20;;;14.38;64.86
55517;BME280;41724;51.176;-0.708;2023-09-30T03:17:12;102065.02;;;14.05;65.49
55517;BME280;41724;51.176;-0.708;2023-09-30T03:19:40;102066.04;;;14.36;65.11
55517;BME280;41724;51.176;-0.708;2023-09-30T03:22:07;102073.77;;;14.37;64.40
55517;BME280;41724;51.176;-0.708;2023-09-30T03:24:35;102076.08;;;13.78;65.90
55517;BME280;41724;51.176;-0.708;2023-09-30T03:27:02;102081.03;;;14.38;65.54
55517;BME280;41724;51.176;-0.708;2023-09-30T03:29:29;102080.68;;;14.41;65.29
55517;BME280;41724;51.176;-0.708;2023-09-30T03:31:56;102074.79;;;14.29;64.49
55517;BME280;41724;51.176;-0.708;2023-09-30T03:34:23;102079.92;;;14.23;64.39
55517;BME280;41724;51.176;-0.708;2023-09-30T03:36:50;102084.96;;;14.46;65.10
55517;BME280;41724;51.176;-0.708;2023-09-30T03:39:17;102083.42;;;14.02;65.07
55517;BME280;41724;51.176;-0.708;2023-09-30T03:41:45;102071.83;;;13.96;65.63
55517;BME280;41724;51.176;-0.708;2023-09-30T03:44:12;102070.34;;;14.23;64.46
55517;BME280;41724;51.176;-0.708;2023-09-30T03:46:39;102072.74;;;14.22;64.66
55517;BME280;41724;51.176;-0.708;2023-09-30T03:49:06;102061.58;;;14.00;65.18
55517;BME280;41724;51.176;-0.708;2023-09-30T03:51:33;102053.78;;;14.13;65.37
55517;BME280;41724;51.176;-0.708;2023-09-30T03:54:00;102048.23;;;14.26;64.57
55517;BME280;41724;51.176;-0.708;2023-09-30T03:56:27;102046.33;;;13.94;65.52
55517;BME280;41724;51.176;-0.708;2023-09-30T03:58:54;102046.61;;;14.22;64.30
55517;BME280;41724;51.176;-0.708;2023-09-30T04:01:21;102043.05;;;14.06;65.43
55517;BME280;41724;51.176;-0.708;2023-09-30T04:03:48;102033.58;;;14.32;64.32
55517;BME280;41724;51.176;-0.708;2023-09-30T04:06:15;102026.58;;;14.45;64.30
55517;BME280;41724;51.176;-0.708;2023-09-30T04:08:42;102028.85;;;14.22;65.10
55517;BME280;41724;51.176;-0.708;2023-09-30T04:11:09;102029.77;;;14.10;64.64
55517;BME280;41724;51.176;-0.708;2023-09-30T04:13:36;102029.78;;;14.41;64.58
55517;BME280;41724;51.176;-0.708;2023-09-30T04:16:03;102032.46;;;14.56;64.27
55517;BME280;41724;51.176;-0.708;2023-09-30T04:18:31;102027.63;;;14.47;64.74
55517;BME280;41724;51.176;-0.708;2023-09-30T04:20:57;102022.19;;;14.14;65.22
55517;BME280;41724;51.176;-0.708;2023-09-30T04:23:25;102021.27;;;14.51;64.43
55517;BME280;41724;51.176;-0.708;2023-09-30T04:25:52;102024.59;;;14.26;64.50
55517;BME280;41724;51.176;-0.708;2023-09-30T04:28:19;102024.98;;;14.07;65.39
55517;BME280;41724;51.176;-0.708;2023-09-30T04:30:47;102024.75;;;14.28;64.68
55517;BME280;41724;51.176;-0.708;2023-09-30T04:33:15;102021.22;;;14.33;65.00
55517;BME280;41724;51.176;-0.708;2023-09-30T04:35:42;102025.70;;;14.37;65.70
55517;BME280;41724;51.176;-0.708;2023-09-30T04:38:09;102032.69;;;13.83;65.79
55517;BME280;41724;51.176;-0.708;2023-09-30T04:40:36;102030.89;;;14.11;65.32
55517;BME280;41724;51.176;-0.708;2023-09-30T04:43:03;102025.64;;;14.43;65.65
55517;BME280;41724;51.176;-0.708;2023-09-30T04:45:30;102026.88;;;14.56;64.65
55517;BME280;41724;51.176;-0.708;2023-09-30T04:47:57;102031.49;;;14.68;64.18
55517;BME280;41724;51.176;-0.708;2023-09-30T04:50:24;102033.57;;;14.55;64.58
55517;BME280;41724;51.176;-0.708;2023-09-30T04:52:52;102034.68;;;14.52;64.99
55517;BME280;41724;51.176;-0.708;2023-09-30T04:55:19;102032.16;;;14.14;65.40
55517;BME280;41724;51.176;-0.708;2023-09-30T04:57:47;102034.53;;;14.26;65.14
55517;BME280;41724;51.176;-0.708;2023-09-30T05:00:16;102031.07;;;14.34;65.76
55517;BME280;41724;51.176;-0.708;2023-09-30T05:02:43;102031.70;;;14.11;65.89
55517;BME280;41724;51.176;-0.708;2023-09-30T05:05:11;102030.33;;;14.33;64.78
55517;BME280;41724;51.176;-0.708;2023-09-30T05:07:37;102029.37;;;14.55;65.05
55517;BME280;41724;51.176;-0.708;2023-09-30T05:10:06;102028.54;;;14.32;64.77
55517;BME280;41724;51.176;-0.708;2023-09-30T05:12:32;102033.52;;;14.44;64.49
55517;BME280;41724;51.176;-0.708;2023-09-30T05:14:59;102037.59;;;14.78;64.55
55517;BME280;41724;51.176;-0.708;2023-09-30T05:17:27;102037.33;;;14.51;65.55
55517;BME280;41724;51.176;-0.708;2023-09-30T05:19:56;102035.74;;;14.29;65.14
55517;BME280;41724;51.176;-0.708;2023-09-30T05:22:23;102037.24;;;14.51;64.65
55517;BME280;41724;51.176;-0.708;2023-09-30T05:24:51;102034.77;;;14.82;64.42
55517;BME280;41724;51.176;-0.708;2023-09-30T05:27:18;102032.28;;;14.81;64.35
55517;BME280;41724;51.176;-0.708;2023-09-30T05:29:45;102033.18;;;14.46;64.44
55517;BME280;41724;51.176;-0.708;2023-09-30T05:32:12;102036.14;;;14.38;65.62
55517;BME280;41724;51.176;-0.708;2023-09-30T05:34:39;102043.25;;;14.52;65.03
55517;BME280;41724;51.176;-0.708;2023-09-30T05:37:06;102040.86;;;14.26;65.14
55517;BME280;41724;51.176;-0.708;2023-09-30T05:39:33;102043.88;;;14.51;64.92
55517;BME280;41724;51.176;-0.708;2023-09-30T05:42:00;102042.41;;;14.19;65.94
55517;BME280;41724;51.176;-0.708;2023-09-30T05:44:28;102044.51;;;14.19;65.10
55517;BME280;41724;51.176;-0.708;2023-09-30T05:46:56;102045.01;;;14.38;65.23
55517;BME280;41724;51.176;-0.708;2023-09-30T05:49:23;102042.88;;;14.63;64.62
55517;BME280;41724;51.176;-0.708;2023-09-30T05:51:50;102041.61;;;14.32;64.94
55517;BME280;41724;51.176;-0.708;2023-09-30T05:54:17;102043.57;;;14.51;65.49
55517;BME280;41724;51.176;-0.708;2023-09-30T05:56:44;102043.92;;;14.60;65.18
55517;BME280;41724;51.176;-0.708;2023-09-30T05:59:12;102048.70;;;14.01;65.53
55517;BME280;41724;51.176;-0.708;2023-09-30T06:01:40;102047.05;;;14.44;65.59
55517;BME280;41724;51.176;-0.708;2023-09-30T06:04:07;102054.36;;;14.30;65.09
55517;BME280;41724;51.176;-0.708;2023-09-30T06:06:34;102066.78;;;14.43;65.65
55517;BME280;41724;51.176;-0.708;2023-09-30T06:09:00;102069.66;;;14.35;66.03
55517;BME280;41724;51.176;-0.708;2023-09-30T06:11:28;102071.59;;;14.22;66.21
55517;BME280;41724;51.176;-0.708;2023-09-30T06:13:55;102076.06;;;14.27;66.24
55517;BME280;41724;51.176;-0.708;2023-09-30T06:16:23;102075.58;;;14.11;66.18
55517;BME280;41724;51.176;-0.708;2023-09-30T06:18:50;102078.23;;;14.02;65.32
55517;BME280;41724;51.176;-0.708;2023-09-30T06:21:17;102072.26;;;14.18;65.35
55517;BME280;41724;51.176;-0.708;2023-09-30T06:23:44;102067.98;;;14.00;66.03
55517;BME280;41724;51.176;-0.708;2023-09-30T06:26:11;102064.20;;;14.24;65.05
55517;BME280;41724;51.176;-0.708;2023-09-30T06:28:38;102065.04;;;14.10;65.49
55517;BME280;41724;51.176;-0.708;2023-09-30T06:31:06;102073.06;;;14.02;65.48
55517;BME280;41724;51.176;-0.708;2023-09-30T06:33:33;102074.88;;;13.74;65.68
55517;BME280;41724;51.176;-0.708;2023-09-30T06:36:00;102079.12;;;14.01;65.29
55517;BME280;41724;51.176;-0.708;2023-09-30T06:38:28;102080.95;;;13.79;66.22
55517;BME280;41724;51.176;-0.708;2023-09-30T06:40:55;102082.24;;;13.89;66.11
55517;BME280;41724;51.176;-0.708;2023-09-30T06:43:22;102079.15;;;13.71;66.55
55517;BME280;41724;51.176;-0.708;2023-09-30T06:45:49;102089.77;;;13.50;66.17
55517;BME280;41724;51.176;-0.708;2023-09-30T06:48:16;102100.15;;;13.63;66.69
55517;BME280;41724;51.176;-0.708;2023-09-30T06:50:45;102099.82;;;13.65;67.00
55517;BME280;41724;51.176;-0.708;2023-09-30T06:53:12;102092.96;;;13.74;66.53
55517;BME280;41724;51.176;-0.708;2023-09-30T06:55:39;102090.27;;;13.79;66.01
55517;BME280;41724;51.176;-0.708;2023-09-30T06:58:06;102094.14;;;13.72;65.48
55517;BME280;41724;51.176;-0.708;2023-09-30T07:00:34;102094.90;;;13.91;65.96
55517;BME280;41724;51.176;-0.708;2023-09-30T07:03:01;102090.44;;;13.92;66.15
55517;BME280;41724;51.176;-0.708;2023-09-30T07:05:29;102090.27;;;13.90;66.58
55517;BME280;41724;51.176;-0.708;2023-09-30T07:07:56;102094.62;;;14.11;66.31
55517;BME280;41724;51.176;-0.708;2023-09-30T07:10:23;102095.79;;;13.87;66.36
55517;BME280;41724;51.176;-0.708;2023-09-30T07:12:50;102088.48;;;13.96;66.37
55517;BME280;41724;51.176;-0.708;2023-09-30T07:15:18;102088.91;;;13.92;66.55
55517;BME280;41724;51.176;-0.708;2023-09-30T07:17:45;102089.26;;;14.29;66.61
55517;BME280;41724;51.176;-0.708;2023-09-30T07:20:12;102099.90;;;14.52;66.33
55517;BME280;41724;51.176;-0.708;2023-09-30T07:22:41;102102.25;;;14.48;66.98
55517;BME280;41724;51.176;-0.708;2023-09-30T07:25:09;102111.52;;;14.16;67.31
55517;BME280;41724;51.176;-0.708;2023-09-30T07:27:37;102117.01;;;14.61;66.78
55517;BME280;41724;51.176;-0.708;2023-09-30T07:30:05;102117.13;;;14.79;67.05
55517;BME280;41724;51.176;-0.708;2023-09-30T07:32:32;102119.42;;;14.49;67.45
55517;BME280;41724;51.176;-0.708;2023-09-30T07:34:59;102119.99;;;14.69;67.51
55517;BME280;41724;51.176;-0.708;2023-09-30T07:37:26;102125.29;;;14.63;68.18
55517;BME280;41724;51.176;-0.708;2023-09-30T07:39:53;102126.48;;;14.38;68.40
55517;BME280;41724;51.176;-0.708;2023-09-30T07:42:20;102126.67;;;14.48;68.20
55517;BME280;41724;51.176;-0.708;2023-09-30T07:44:48;102131.61;;;14.63;68.78
55517;BME280;41724;51.176;-0.708;2023-09-30T07:47:16;102126.20;;;14.90;68.29
55517;BME280;41724;51.176;-0.708;2023-09-30T07:49:43;102123.33;;;14.95;67.99
55517;BME280;41724;51.176;-0.708;2023-09-30T07:52:10;102127.33;;;14.99;68.17
55517;BME280;41724;51.176;-0.708;2023-09-30T07:54:37;102126.69;;;15.06;68.42
55517;BME280;41724;51.176;-0.708;2023-09-30T07:57:03;102123.16;;;15.02;69.11
55517;BME280;41724;51.176;-0.708;2023-09-30T07:59:30;102126.91;;;15.20;68.37
55517;BME280;41724;51.176;-0.708;2023-09-30T08:01:57;102138.40;;;15.33;68.39
55517;BME280;41724;51.176;-0.708;2023-09-30T08:04:24;102135.14;;;15.48;68.85
55517;BME280;41724;51.176;-0.708;2023-09-30T08:06:51;102139.18;;;15.62;69.03
55517;BME280;41724;51.176;-0.708;2023-09-30T08:09:18;102141.40;;;15.69;68.78
55517;BME280;41724;51.176;-0.708;2023-09-30T08:11:45;102140.00;;;15.68;69.25
55517;BME280;41724;51.176;-0.708;2023-09-30T08:14:12;102137.18;;;15.65;69.11
55517;BME280;41724;51.176;-0.708;2023-09-30T08:16:40;102135.97;;;15.79;69.12
55517;BME280;41724;51.176;-0.708;2023-09-30T08:19:07;102128.40;;;15.86;68.91
55517;BME280;41724;51.176;-0.708;2023-09-30T08:21:34;102128.02;;;16.14;68.47
55517;BME280;41724;51.176;-0.708;2023-09-30T08:24:02;102130.43;;;16.34;68.09
55517;BME280;41724;51.176;-0.708;2023-09-30T08:26:29;102129.10;;;16.32;68.84
55517;BME280;41724;51.176;-0.708;2023-09-30T08:28:56;102125.31;;;16.31;69.15
55517;BME280;41724;51.176;-0.708;2023-09-30T08:31:23;102125.93;;;16.49;69.19
55517;BME280;41724;51.176;-0.708;2023-09-30T08:33:51;102131.72;;;16.39;69.46
55517;BME280;41724;51.176;-0.708;2023-09-30T08:36:18;102141.19;;;16.55;68.54
55517;BME280;41724;51.176;-0.708;2023-09-30T08:38:45;102152.93;;;16.86;68.52
55517;BME280;41724;51.176;-0.708;2023-09-30T08:41:28;102141.67;;;17.05;68.27
55517;BME280;41724;51.176;-0.708;2023-09-30T08:43:59;102135.06;;;16.77;68.24
55517;BME280;41724;51.176;-0.708;2023-09-30T08:46:30;102119.09;;;17.24;68.78
55517;BME280;41724;51.176;-0.708;2023-09-30T08:48:58;102117.07;;;17.18;67.93
55517;BME280;41724;51.176;-0.708;2023-09-30T08:51:29;102117.80;;;17.37;67.69
55517;BME280;41724;51.176;-0.708;2023-09-30T08:53:57;102120.49;;;17.32;67.82
55517;BME280;41724;51.176;-0.708;2023-09-30T08:56:27;102124.84;;;17.41;68.08
55517;BME280;41724;51.176;-0.708;2023-09-30T08:58:57;102115.17;;;17.81;67.92
55517;BME280;41724;51.176;-0.708;2023-09-30T09:01:25;102106.81;;;17.53;68.42
55517;BME280;41724;51.176;-0.708;2023-09-30T09:03:54;102105.84;;;17.84;67.13
55517;BME280;41724;51.176;-0.708;2023-09-30T09:06:21;102104.79;;;18.33;66.41
55517;BME280;41724;51.176;-0.708;2023-09-30T09:08:48;102103.18;;;18.04;65.93
55517;BME280;41724;51.176;-0.708;2023-09-30T09:11:15;102103.45;;;18.24;66.32
55517;BME280;41724;51.176;-0.708;2023-09-30T09:13:47;102108.91;;;17.85;66.93
55517;BME280;41724;51.176;-0.708;2023-09-30T09:16:15;102104.28;;;18.70;63.50
55517;BME280;41724;51.176;-0.708;2023-09-30T09:18:42;102096.54;;;18.60;64.10
55517;BME280;41724;51.176;-0.708;2023-09-30T09:21:11;102090.94;;;18.88;62.79
55517;BME280;41724;51.176;-0.708;2023-09-30T09:23:40;102086.79;;;19.19;61.78
55517;BME280;41724;51.176;-0.708;2023-09-30T09:26:07;102089.45;;;19.46;60.56
55517;BME280;41724;51.176;-0.708;2023-09-30T09:28:35;102090.58;;;19.62;60.30
55517;BME280;41724;51.176;-0.708;2023-09-30T09:31:02;102088.26;;;19.99;60.02
55517;BME280;41724;51.176;-0.708;2023-09-30T09:33:35;102078.67;;;20.24;59.88
55517;BME280;41724;51.176;-0.708;2023-09-30T09:36:02;102071.03;;;20.47;58.73
55517;BME280;41724;51.176;-0.708;2023-09-30T09:38:46;102062.14;;;20.94;56.37
55517;BME280;41724;51.176;-0.708;2023-09-30T09:41:14;102061.29;;;20.21;55.29
55517;BME280;41724;51.176;-0.708;2023-09-30T09:43:42;102067.05;;;21.17;54.17
55517;BME280;41724;51.176;-0.708;2023-09-30T09:46:10;102074.20;;;19.79;54.68
55517;BME280;41724;51.176;-0.708;2023-09-30T09:48:38;102063.98;;;21.23;49.73
55517;BME280;41724;51.176;-0.708;2023-09-30T09:51:05;102058.45;;;20.77;50.73
55517;BME280;41724;51.176;-0.708;2023-09-30T09:53:35;102066.63;;;18.76;56.41
55517;BME280;41724;51.176;-0.708;2023-09-30T09:56:03;102064.45;;;19.12;55.72
55517;BME280;41724;51.176;-0.708;2023-09-30T09:58:33;102064.53;;;20.72;54.70
55517;BME280;41724;51.176;-0.708;2023-09-30T10:01:01;102075.84;;;21.65;51.92
55517;BME280;41724;51.176;-0.708;2023-09-30T10:03:29;102078.34;;;20.68;49.99
55517;BME280;41724;51.176;-0.708;2023-09-30T10:05:56;102077.92;;;20.79;51.14
55517;BME280;41724;51.176;-0.708;2023-09-30T10:08:32;102081.05;;;19.94;51.45
55517;BME280;41724;51.176;-0.708;2023-09-30T10:11:01;102079.96;;;19.17;53.43
55517;BME280;41724;51.176;-0.708;2023-09-30T10:14:00;102079.64;;;20.72;50.34
55517;BME280;41724;51.176;-0.708;2023-09-30T10:17:00;102087.63;;;20.26;50.71
55517;BME280;41724;51.176;-0.708;2023-09-30T10:19:27;102081.87;;;20.75;50.64
55517;BME280;41724;51.176;-0.708;2023-09-30T10:22:27;102072.64;;;20.79;50.14
55517;BME280;41724;51.176;-0.708;2023-09-30T10:24:55;102077.74;;;20.16;54.99
55517;BME280;41724;51.176;-0.708;2023-09-30T10:27:38;102077.26;;;21.51;53.31
55517;BME280;41724;51.176;-0.708;2023-09-30T10:30:08;102071.39;;;21.27;55.29
55517;BME280;41724;51.176;-0.708;2023-09-30T10:33:09;102066.63;;;20.83;53.81
55517;BME280;41724;51.176;-0.708;2023-09-30T10:35:46;102062.38;;;21.68;54.20
55517;BME280;41724;51.176;-0.708;2023-09-30T10:38:45;102059.77;;;22.36;53.31
55517;BME280;41724;51.176;-0.708;2023-09-30T10:41:49;102055.42;;;22.62;51.83
55517;BME280;41724;51.176;-0.708;2023-09-30T10:44:33;102043.31;;;22.11;52.74
55517;BME280;41724;51.176;-0.708;2023-09-30T10:47:22;102034.28;;;21.92;54.15
55517;BME280;41724;51.176;-0.708;2023-09-30T10:50:03;102043.49;;;21.66;53.41
55517;BME280;41724;51.176;-0.708;2023-09-30T10:52:30;102033.06;;;21.94;51.66
55517;BME280;41724;51.176;-0.708;2023-09-30T10:55:05;102029.18;;;21.66;51.43
55517;BME280;41724;51.176;-0.708;2023-09-30T10:57:33;102027.85;;;22.61;51.50
55517;BME280;41724;51.176;-0.708;2023-09-30T11:00:08;102025.57;;;22.14;53.25
55517;BME280;41724;51.176;-0.708;2023-09-30T11:02:35;102024.06;;;21.77;54.81
55517;BME280;41724;51.176;-0.708;2023-09-30T11:05:09;102031.13;;;21.12;56.50
55517;BME280;41724;51.176;-0.708;2023-09-30T11:07:37;102025.96;;;21.70;56.28
55517;BME280;41724;51.176;-0.708;2023-09-30T11:10:06;102021.75;;;22.06;54.30
55517;BME280;41724;51.176;-0.708;2023-09-30T11:12:33;102026.69;;;22.17;53.61
55517;BME280;41724;51.176;-0.708;2023-09-30T11:15:01;102028.99;;;22.73;52.12
55517;BME280;41724;51.176;-0.708;2023-09-30T11:17:28;102028.00;;;21.90;53.95
55517;BME280;41724;51.176;-0.708;2023-09-30T11:19:55;102024.80;;;22.69;53.03
55517;BME280;41724;51.176;-0.708;2023-09-30T11:22:22;102031.90;;;21.63;55.44
55517;BME280;41724;51.176;-0.708;2023-09-30T11:24:49;102019.70;;;21.61;54.91
55517;BME280;41724;51.176;-0.708;2023-09-30T11:27:22;102011.27;;;21.58;54.61
55517;BME280;41724;51.176;-0.708;2023-09-30T11:29:50;102007.84;;;22.19;54.27
55517;BME280;41724;51.176;-0.708;2023-09-30T11:32:23;102004.35;;;22.65;53.29
55517;BME280;41724;51.176;-0.708;2023-09-30T11:34:50;102008.47;;;22.59;52.93
55517;BME280;41724;51.176;-0.708;2023-09-30T11:37:17;102004.66;;;22.82;53.43
55517;BME280;41724;51.176;-0.708;2023-09-30T11:39:44;101998.15;;;21.95;54.11
55517;BME280;41724;51.176;-0.708;2023-09-30T11:42:15;101995.38;;;22.67;51.59
55517;BME280;41724;51.176;-0.708;2023-09-30T11:44:46;101994.44;;;22.59;53.01
55517;BME280;41724;51.176;-0.708;2023-09-30T11:47:14;101992.08;;;22.66;53.15
55517;BME280;41724;51.176;-0.708;2023-09-30T11:49:43;101992.07;;;23.72;50.34
55517;BME280;41724;51.176;-0.708;2023-09-30T11:52:11;101980.91;;;23.44;50.11
55517;BME280;41724;51.176;-0.708;2023-09-30T11:54:41;101978.64;;;23.84;50.61
55517;BME280;41724;51.176;-0.708;2023-09-30T11:57:10;101972.84;;;23.76;47.89
55517;BME280;41724;51.176;-0.708;2023-09-30T11:59:38;101975.06;;;23.66;49.33
55517;BME280;41724;51.176;-0.708;2023-09-30T12:02:05;101967.96;;;23.25;47.90
55517;BME280;41724;51.176;-0.708;2023-09-30T12:04:32;101962.46;;;23.36;46.71
55517;BME280;41724;51.176;-0.708;2023-09-30T12:06:59;101958.89;;;22.74;46.56
55517;BME280;41724;51.176;-0.708;2023-09-30T12:09:27;101956.82;;;23.33;46.63
55517;BME280;41724;51.176;-0.708;2023-09-30T12:11:54;101954.43;;;22.90;48.67
55517;BME280;41724;51.176;-0.708;2023-09-30T12:14:21;101945.25;;;22.98;49.04
55517;BME280;41724;51.176;-0.708;2023-09-30T12:16:48;101939.86;;;22.91;49.80
55517;BME280;41724;51.176;-0.708;2023-09-30T12:19:15;101931.76;;;22.84;51.25
55517;BME280;41724;51.176;-0.708;2023-09-30T12:21:43;101935.52;;;22.85;49.44
55517;BME280;41724;51.176;-0.708;2023-09-30T12:24:10;101936.36;;;21.76;51.15
55517;BME280;41724;51.176;-0.708;2023-09-30T12:26:37;101930.30;;;22.03;51.24
55517;BME280;41724;51.176;-0.708;2023-09-30T12:29:04;101926.19;;;22.71;48.64
55517;BME280;41724;51.176;-0.708;2023-09-30T12:31:31;101934.89;;;22.66;50.30
55517;BME280;41724;51.176;-0.708;2023-09-30T12:33:57;101928.51;;;22.49;50.68
55517;BME280;41724;51.176;-0.708;2023-09-30T12:36:24;101925.89;;;21.58;53.75
55517;BME280;41724;51.176;-0.708;2023-09-30T12:38:51;101930.47;;;21.81;52.14
55517;BME280;41724;51.176;-0.708;2023-09-30T12:41:18;101935.63;;;20.84;56.30
55517;BME280;41724;51.176;-0.708;2023-09-30T12:43:45;101928.56;;;22.13;54.31
55517;BME280;41724;51.176;-0.708;2023-09-30T12:46:12;101928.82;;;23.20;51.42